Terminal Aerodrome Forecast
Issued by NWS

Home | Current Version | Previous Version | Text Only | Print | Product List | Glossary On
Versions: 1 2 3 4 5 6 7 8 9 10 11 12 13 14 15 16
000
FTUS43 KPAH 251100
TAFCGI
TAF
KCGI 251120Z 2512/2612 21008KT P6SM VCSH SCT050 BKN120
      TEMPO 2512/2515 -RA BKN050
     FM251500 24008KT P6SM VCSH BKN030
      TEMPO 2515/2518 5SM -SHRA BKN015
     FM251800 29009KT 4SM -SHRA BR OVC015
     FM260000 32012G22KT P6SM SCT015 OVC025=

USA.gov is the U.S. government's official web portal to all federal, state and local government web resources and services.